createdAt,value
2022-08-22T00:01:07.801Z,89.79
2022-08-22T00:06:42.547Z,90.04
2022-08-22T00:12:22.473Z,90.25
2022-08-22T00:17:55.199Z,89.76
2022-08-22T00:23:27.370Z,90.01
2022-08-22T00:28:37.034Z,89.59
2022-08-22T00:33:51.304Z,89.37
2022-08-22T00:39:06.396Z,89.47
2022-08-22T00:44:21.323Z,89.27
2022-08-22T00:49:44.491Z,89.37
2022-08-22T00:55:23.976Z,89.54
2022-08-22T01:00:36.665Z,89.54
2022-08-22T01:06:07.512Z,89.39
2022-08-22T01:11:35.135Z,89.26
2022-08-22T01:16:51.710Z,89.42
2022-08-22T01:22:06.430Z,89.59
2022-08-22T01:27:31.418Z,89.76
2022-08-22T01:33:20.835Z,90.08
2022-08-22T01:38:41.638Z,89.92
2022-08-22T01:44:16.673Z,90.08
2022-08-22T01:49:35.774Z,89.77
2022-08-22T01:54:56.039Z,90.01
2022-08-22T02:00:07.356Z,90.38
2022-08-22T02:05:17.053Z,91.13
2022-08-22T02:10:26.467Z,91.18
2022-08-22T02:15:41.267Z,91.04
2022-08-22T02:20:52.835Z,90.91
2022-08-22T02:26:13.111Z,90.93
2022-08-22T02:31:25.734Z,90.46
2022-08-22T02:36:44.364Z,90.62
2022-08-22T02:41:56.461Z,90.67
2022-08-22T02:47:11.529Z,91.21
2022-08-22T02:52:33.261Z,90.89
2022-08-22T02:58:04.824Z,91.02
2022-08-22T03:03:16.768Z,91.24
2022-08-22T03:08:33.179Z,91.27
2022-08-22T03:13:49.709Z,91.78
2022-08-22T03:19:31.747Z,91.66
2022-08-22T03:25:18.996Z,91.49
2022-08-22T03:30:34.082Z,91.53
2022-08-22T03:35:49.668Z,91.46
2022-08-22T03:41:24.074Z,91.69
2022-08-22T03:46:51.170Z,91.83
2022-08-22T03:52:11.947Z,91.90
2022-08-22T03:57:36.404Z,92.38
2022-08-22T04:03:00.429Z,92.47
2022-08-22T04:08:25.959Z,92.15
2022-08-22T04:13:28.992Z,92.41
2022-08-22T04:19:08.868Z,92.42
2022-08-22T04:24:40.737Z,92.82
2022-08-22T04:29:46.472Z,92.88
2022-08-22T04:34:56.034Z,92.87
2022-08-22T04:39:58.660Z,92.49
2022-08-22T04:45:37.483Z,92.64
2022-08-22T04:50:49.698Z,92.77
2022-08-22T04:55:55.035Z,92.89
2022-08-22T05:01:09.691Z,92.41
2022-08-22T05:06:15.942Z,92.25
2022-08-22T05:11:20.045Z,92.02
2022-08-22T05:16:30.435Z,92.40
2022-08-22T05:21:37.626Z,91.78
2022-08-22T05:26:50.909Z,91.78
2022-08-22T05:32:02.681Z,91.45
2022-08-22T05:37:05.307Z,91.60
2022-08-22T05:42:16.072Z,91.66
2022-08-22T05:47:36.783Z,91.48
2022-08-22T05:53:12.984Z,91.49
2022-08-22T05:58:56.179Z,91.73
2022-08-22T06:04:13.748Z,91.83
2022-08-22T06:09:35.422Z,91.78
2022-08-22T06:15:02.699Z,91.62
2022-08-22T06:20:21.755Z,91.56
2022-08-22T06:25:36.412Z,91.86
2022-08-22T06:30:40.094Z,91.91
2022-08-22T06:36:28.531Z,91.52
2022-08-22T06:41:35.826Z,91.89
2022-08-22T06:46:39.338Z,91.78
2022-08-22T06:51:43.923Z,92.01
2022-08-22T06:56:50.070Z,91.94
2022-08-22T07:02:04.397Z,92.32
2022-08-22T07:07:07.329Z,92.03
2022-08-22T07:12:20.212Z,92.35
2022-08-22T07:17:30.029Z,92.07
2022-08-22T07:22:37.488Z,91.95
2022-08-22T07:27:49.257Z,91.76
2022-08-22T07:32:51.866Z,91.56
2022-08-22T07:37:58.959Z,91.53
2022-08-22T07:43:20.039Z,91.45
2022-08-22T07:49:08.284Z,91.93
2022-08-22T07:54:17.131Z,91.53
2022-08-22T07:59:22.274Z,91.46
2022-08-22T08:04:30.194Z,91.05
2022-08-22T08:09:38.456Z,90.84
2022-08-22T08:14:44.520Z,90.75
2022-08-22T08:19:47.434Z,90.57
2022-08-22T08:24:54.133Z,90.40
2022-08-22T08:30:02.459Z,90.44
2022-08-22T08:35:19.200Z,90.32
2022-08-22T08:40:30.798Z,90.23
2022-08-22T08:45:48.230Z,90.15
2022-08-22T08:51:16.188Z,89.93
2022-08-22T08:56:38.080Z,89.63
2022-08-22T09:01:53.388Z,88.81
2022-08-22T09:07:07.202Z,87.55
2022-08-22T09:12:56.390Z,86.57
2022-08-22T09:18:18.647Z,85.36
2022-08-22T09:24:07.036Z,85.71
2022-08-22T09:29:57.022Z,84.78
2022-08-22T09:35:23.116Z,83.06
2022-08-22T09:40:45.832Z,82.27
2022-08-22T09:45:52.415Z,81.41
2022-08-22T09:51:33.152Z,81.97
2022-08-22T09:56:39.600Z,82.39
2022-08-22T10:01:48.334Z,83.19
2022-08-22T10:07:01.748Z,83.65
2022-08-22T10:12:12.759Z,83.41
2022-08-22T10:17:24.070Z,83.11
2022-08-22T10:22:40.601Z,82.99
2022-08-22T10:27:43.217Z,82.36
2022-08-22T10:33:29.392Z,82.43
2022-08-22T10:38:53.997Z,81.39
2022-08-22T10:44:01.183Z,81.00
2022-08-22T10:49:28.279Z,80.64
2022-08-22T10:54:42.988Z,80.35
2022-08-22T11:00:11.868Z,80.29
2022-08-22T11:05:29.989Z,80.11
2022-08-22T11:11:04.653Z,78.54
2022-08-22T11:16:16.421Z,78.57
2022-08-22T11:21:48.740Z,77.42
2022-08-22T11:27:17.634Z,75.77
2022-08-22T11:32:29.518Z,74.37
2022-08-22T11:37:45.028Z,74.06
2022-08-22T11:42:53.400Z,73.65
2022-08-22T11:48:10.941Z,72.53
2022-08-22T11:53:27.291Z,72.93
2022-08-22T11:58:52.428Z,73.07
2022-08-22T12:04:09.882Z,72.44
2022-08-22T12:09:23.088Z,71.56
2022-08-22T12:15:01.210Z,71.49
2022-08-22T12:20:17.210Z,71.02
2022-08-22T12:25:44.514Z,69.41
2022-08-22T12:31:17.016Z,68.67
2022-08-22T12:36:35.178Z,67.96
2022-08-22T12:41:56.530Z,67.98
2022-08-22T12:47:32.020Z,68.30
2022-08-22T12:52:38.046Z,67.69
2022-08-22T12:58:02.100Z,68.25
2022-08-22T13:03:23.225Z,67.36
2022-08-22T13:08:41.228Z,67.97
2022-08-22T13:13:56.196Z,67.72
2022-08-22T13:19:13.659Z,66.18
2022-08-22T13:24:38.805Z,65.12
2022-08-22T13:29:57.073Z,65.08
2022-08-22T13:35:01.591Z,64.71
2022-08-22T13:40:10.200Z,63.68
2022-08-22T13:45:26.013Z,63.12
2022-08-22T13:50:37.524Z,63.38
2022-08-22T13:56:05.815Z,63.48
2022-08-22T14:01:11.625Z,61.98
2022-08-22T14:06:36.835Z,61.54
2022-08-22T14:11:40.923Z,61.62
2022-08-22T14:16:54.061Z,61.48
2022-08-22T14:22:22.045Z,61.67
2022-08-22T14:27:34.934Z,62.23
2022-08-22T14:32:42.482Z,62.44
2022-08-22T14:37:52.196Z,63.15
2022-08-22T14:43:06.431Z,63.99
2022-08-22T14:48:31.723Z,64.77
2022-08-22T14:53:38.987Z,65.04
2022-08-22T14:59:02.938Z,65.27
2022-08-22T15:04:11.379Z,65.89
2022-08-22T15:09:36.821Z,66.51
2022-08-22T15:14:52.443Z,66.58
2022-08-22T15:20:22.775Z,67.98
2022-08-22T15:25:36.979Z,64.85
2022-08-22T15:31:03.825Z,61.36
2022-08-22T15:36:24.999Z,59.94
2022-08-22T15:41:37.032Z,59.73
2022-08-22T15:46:44.742Z,59.00
2022-08-22T15:52:13.376Z,58.09
2022-08-22T15:57:18.905Z,54.26
2022-08-22T16:03:07.641Z,52.57
2022-08-22T16:08:18.626Z,50.30
2022-08-22T16:13:27.296Z,49.76
2022-08-22T16:18:45.165Z,50.26
2022-08-22T16:23:54.263Z,52.23
2022-08-22T16:29:17.534Z,54.26
2022-08-22T16:34:38.370Z,55.98
2022-08-22T16:40:03.575Z,56.93
2022-08-22T16:45:17.757Z,58.28
2022-08-22T16:50:28.022Z,59.37
2022-08-22T16:55:30.881Z,60.39
2022-08-22T17:00:36.530Z,61.23
2022-08-22T17:06:05.178Z,61.90
2022-08-22T17:11:30.128Z,62.15
2022-08-22T17:16:52.058Z,62.93
2022-08-22T17:22:02.137Z,63.17
2022-08-22T17:27:23.368Z,63.52
2022-08-22T17:33:00.265Z,64.10
2022-08-22T17:38:31.898Z,64.68
2022-08-22T17:43:52.158Z,65.16
2022-08-22T17:49:32.219Z,65.61
2022-08-22T17:55:00.497Z,66.08
2022-08-22T18:00:17.347Z,66.67
2022-08-22T18:05:28.017Z,67.00
2022-08-22T18:10:40.895Z,67.43
2022-08-22T18:16:04.030Z,67.82
2022-08-22T18:21:15.289Z,68.07
2022-08-22T18:26:17.928Z,68.45
2022-08-22T18:31:45.377Z,68.74
2022-08-22T18:37:01.152Z,68.77
2022-08-22T18:42:09.496Z,68.99
2022-08-22T18:47:19.252Z,69.23
2022-08-22T18:52:42.280Z,69.75
2022-08-22T18:57:58.335Z,70.42
2022-08-22T19:03:43.155Z,70.73
2022-08-22T19:08:53.407Z,71.02
2022-08-22T19:14:17.913Z,71.11
2022-08-22T19:19:57.146Z,71.64
2022-08-22T19:25:09.277Z,71.84
2022-08-22T19:30:33.910Z,72.24
2022-08-22T19:35:51.665Z,72.33
2022-08-22T19:40:58.488Z,72.45
2022-08-22T19:46:05.629Z,72.72
2022-08-22T19:51:28.898Z,73.24
2022-08-22T19:56:50.694Z,73.36
2022-08-22T20:01:58.178Z,73.85
2022-08-22T20:07:21.500Z,74.35
2022-08-22T20:12:30.095Z,74.80
2022-08-22T20:17:41.314Z,74.91
2022-08-22T20:22:55.374Z,74.98
2022-08-22T20:28:05.197Z,75.27
2022-08-22T20:33:13.937Z,75.37
2022-08-22T20:38:22.327Z,75.95
2022-08-22T20:43:35.768Z,75.94
2022-08-22T20:48:42.946Z,75.73
2022-08-22T20:53:53.059Z,75.69
2022-08-22T20:59:00.512Z,76.22
2022-08-22T21:04:04.907Z,76.51
2022-08-22T21:09:52.499Z,76.37
2022-08-22T21:14:55.220Z,76.56
2022-08-22T21:19:58.457Z,76.41
2022-08-22T21:25:01.490Z,76.83
2022-08-22T21:30:08.513Z,77.04
2022-08-22T21:35:40.733Z,77.07
2022-08-22T21:40:43.468Z,77.68
2022-08-22T21:45:47.027Z,78.01
2022-08-22T21:50:49.847Z,77.89
2022-08-22T21:56:11.980Z,78.19
2022-08-22T22:01:31.372Z,78.65
2022-08-22T22:06:34.280Z,79.07
2022-08-22T22:11:39.387Z,79.64
2022-08-22T22:16:42.093Z,79.93
2022-08-22T22:21:44.832Z,79.72
2022-08-22T22:26:47.714Z,79.54
2022-08-22T22:31:50.612Z,79.88
2022-08-22T22:36:54.398Z,80.26
2022-08-22T22:41:57.077Z,80.27
2022-08-22T22:47:04.936Z,80.28
2022-08-22T22:52:07.646Z,79.99
2022-08-22T22:57:16.209Z,80.57
2022-08-22T23:02:28.265Z,80.70
2022-08-22T23:07:33.854Z,80.58
2022-08-22T23:12:38.100Z,80.77
2022-08-22T23:17:42.425Z,81.23
2022-08-22T23:22:46.177Z,81.33
2022-08-22T23:27:52.481Z,81.84
2022-08-22T23:32:55.897Z,81.68
2022-08-22T23:37:58.802Z,81.95
2022-08-22T23:43:01.808Z,82.16
2022-08-22T23:48:04.542Z,82.27
2022-08-22T23:53:07.225Z,82.43
2022-08-22T23:58:10.009Z,82.76
